»·PEaware :: FFT250 KPHX-KDEN

FFT250 :: KPHX-KDEN

FLIGHT INFORMATION

Flight Status: Arrived
Operator:
Frontier Airlines
More flights by this operator :: More flights under this callsign
Pilot: Andrew J. (13363)
Aircraft: AIRBUS A320
(A320)
More flights by this aircraft type
Origin: KPHX Phoenix Sky Harbor Intl
United States
Destination: KDEN Denver Intl
United States
More flights between these airports :: More routes between these airports
Route: MRBIL1 YOOPR SHNPS TBARR1
File this flight plan on PilotEdge
Remarks: RMK / SIMBRIEF
Altitude:
(Current/Filed)
37,000ft
Speed:
(Current/Filed)
458kts
Departed: 25-Aug-20 08:56 PM
Arrived: 25-Aug-20 10:20 PM
Distance/Time
Traveled:
522nm/1:23
Distance/Time
To Go:
Arrived

Flight Plot

Page will automatically refresh every two minutes.

Flight plan parsing failed; only flown route is shown


Map Options




Map Legend


Flown Route
Filed Route
Departure Airport
Arrival Airport
Navaid (VOR, NDB)
Fix

Horizontal Profiles

Position Reports

Time Latitude Longitude Heading Altitude Ground
Speed
25-Aug-20 20:44 33.434467 -112.008260 263 1128ft 0kts
25-Aug-20 20:45 33.434467 -112.008260 263 1128ft 0kts
25-Aug-20 20:46 33.434467 -112.008260 263 1128ft 0kts
25-Aug-20 20:47 33.434492 -112.007906 265 1128ft 2kts
25-Aug-20 20:48 33.434409 -112.007684 215 1128ft 1kts
25-Aug-20 20:49 33.434396 -112.007696 215 1128ft 0kts
25-Aug-20 20:50 33.434368 -112.007699 180 1128ft 0kts
25-Aug-20 20:51 33.433282 -112.007523 178 1128ft 7kts
25-Aug-20 20:52 33.432130 -112.011025 269 1127ft 22kts
25-Aug-20 20:53 33.432152 -112.020303 269 1119ft 29kts
25-Aug-20 20:54 33.431036 -112.026473 90 1115ft 11kts
25-Aug-20 20:55 33.431249 -111.990074 88 1933ft 177kts
25-Aug-20 20:56 33.428334 -111.923780 93 4586ft 218kts
25-Aug-20 20:57 33.449960 -111.852637 22 6593ft 279kts
25-Aug-20 20:58 33.529490 -111.844167 0 9494ft 298kts
25-Aug-20 20:59 33.618863 -111.838757 1 11157ft 356kts
25-Aug-20 21:00 33.723220 -111.813425 13 12330ft 404kts
25-Aug-20 21:01 33.827012 -111.761901 35 14351ft 416kts
25-Aug-20 21:02 33.919626 -111.676505 35 16366ft 423kts
25-Aug-20 21:03 34.018967 -111.599996 27 18284ft 428kts
25-Aug-20 21:04 34.112048 -111.536412 28 19846ft 436kts
25-Aug-20 21:05 34.218855 -111.461968 28 21479ft 444kts
25-Aug-20 21:06 34.326711 -111.386428 28 22968ft 452kts
25-Aug-20 21:07 34.436532 -111.309269 29 24310ft 459kts
25-Aug-20 21:08 34.548268 -111.230521 29 25525ft 466kts
25-Aug-20 21:09 34.654749 -111.155244 29 26536ft 472kts
25-Aug-20 21:10 34.768916 -111.074287 29 27629ft 474kts
25-Aug-20 21:11 34.883041 -110.993100 29 28810ft 472kts
25-Aug-20 21:12 34.996384 -110.912190 29 29765ft 478kts
25-Aug-20 21:14 35.113057 -110.828629 30 30691ft 483kts
25-Aug-20 21:15 35.228573 -110.745655 30 31912ft 478kts
25-Aug-20 21:16 35.343071 -110.663113 30 33024ft 475kts
25-Aug-20 21:17 35.456903 -110.580778 30 34060ft 471kts
25-Aug-20 21:18 35.569425 -110.499119 30 34973ft 469kts
25-Aug-20 21:19 35.676723 -110.409372 46 35812ft 465kts
25-Aug-20 21:20 35.765278 -110.293368 47 36561ft 464kts
25-Aug-20 21:21 35.853776 -110.177097 47 37144ft 464kts
25-Aug-20 21:22 35.942292 -110.060384 47 37221ft 463kts
25-Aug-20 21:23 36.030379 -109.943825 47 37287ft 464kts
25-Aug-20 21:24 36.117737 -109.827826 47 37296ft 464kts
25-Aug-20 21:25 36.206053 -109.710141 47 37296ft 464kts
25-Aug-20 21:26 36.294286 -109.592143 47 37293ft 464kts
25-Aug-20 21:27 36.382149 -109.474224 47 37295ft 464kts
25-Aug-20 21:28 36.470025 -109.355862 47 37297ft 464kts
25-Aug-20 21:28 36.537546 -109.264627 47 37270ft 464kts
25-Aug-20 21:30 36.639851 -109.125909 48 37197ft 463kts
25-Aug-20 21:31 36.726147 -109.008473 48 37187ft 447kts
25-Aug-20 21:31 36.795140 -108.914261 47 37190ft 439kts
25-Aug-20 21:33 36.891488 -108.782184 47 37188ft 442kts
25-Aug-20 21:33 36.960699 -108.687009 47 37198ft 442kts
25-Aug-20 21:35 37.057691 -108.553160 46 37135ft 450kts
25-Aug-20 21:35 37.128481 -108.455103 47 37148ft 461kts
25-Aug-20 21:36 37.213238 -108.337347 47 37224ft 466kts
25-Aug-20 21:38 37.313965 -108.196857 47 37211ft 462kts
25-Aug-20 21:38 37.385835 -108.096220 47 37256ft 462kts
25-Aug-20 21:39 37.471596 -107.975730 47 37331ft 462kts
25-Aug-20 21:40 37.557257 -107.854927 47 37429ft 462kts
25-Aug-20 21:41 37.642624 -107.734090 47 37472ft 463kts
25-Aug-20 21:42 37.727971 -107.612829 47 37454ft 462kts
25-Aug-20 21:43 37.812390 -107.492435 47 37473ft 462kts
25-Aug-20 21:44 37.895113 -107.374022 47 37468ft 462kts
25-Aug-20 21:45 37.977557 -107.255574 48 37460ft 462kts
25-Aug-20 21:46 38.060070 -107.136588 48 37436ft 462kts
25-Aug-20 21:47 38.129588 -107.035997 48 37433ft 462kts
25-Aug-20 21:48 38.205432 -106.922380 49 37437ft 462kts
25-Aug-20 21:49 38.300275 -106.777970 49 37443ft 461kts
25-Aug-20 21:50 38.382228 -106.652799 49 37432ft 460kts
25-Aug-20 21:51 38.463953 -106.527494 49 37427ft 459kts
25-Aug-20 21:52 38.545358 -106.402192 49 37438ft 459kts
25-Aug-20 21:53 38.625633 -106.278148 50 37437ft 460kts
25-Aug-20 21:54 38.707464 -106.152505 49 36951ft 458kts
25-Aug-20 21:55 38.788933 -106.027785 49 35207ft 457kts
25-Aug-20 21:56 38.871128 -105.901333 49 32072ft 467kts
25-Aug-20 21:57 38.954974 -105.771431 49 28612ft 478kts
25-Aug-20 21:58 39.040179 -105.638787 49 24930ft 483kts
25-Aug-20 21:59 39.122686 -105.509874 49 22619ft 455kts
25-Aug-20 22:00 39.198948 -105.389483 49 21640ft 403kts
25-Aug-20 22:01 39.265136 -105.284102 50 20959ft 353kts
25-Aug-20 22:02 39.332238 -105.208580 35 19766ft 330kts
25-Aug-20 22:03 39.405702 -105.140295 36 18221ft 321kts
25-Aug-20 22:04 39.477571 -105.073414 36 16845ft 312kts
25-Aug-20 22:05 39.548551 -105.008344 35 15802ft 313kts
25-Aug-20 22:06 39.620173 -104.942453 35 14755ft 314kts
25-Aug-20 22:07 39.691738 -104.876433 34 13711ft 315kts
25-Aug-20 22:08 39.769200 -104.840638 357 12644ft 296kts
25-Aug-20 22:09 39.850879 -104.839888 357 11403ft 287kts
25-Aug-20 22:10 39.926234 -104.839081 357 11039ft 268kts
25-Aug-20 22:11 40.001991 -104.837277 0 10059ft 270kts
25-Aug-20 22:12 40.067717 -104.797910 39 9084ft 262kts
25-Aug-20 22:13 40.068313 -104.723576 143 8509ft 220kts
25-Aug-20 22:14 40.024320 -104.686617 178 8071ft 166kts
25-Aug-20 22:15 39.979600 -104.685808 182 7070ft 148kts
25-Aug-20 22:16 39.944997 -104.686250 183 6316ft 138kts
25-Aug-20 22:17 39.906124 -104.686686 183 5597ft 140kts
25-Aug-20 22:18 39.877332 -104.687027 180 5364ft 58kts
25-Aug-20 22:19 39.866225 -104.687169 179 5364ft 33kts
25-Aug-20 22:20 39.863202 -104.685072 180 5373ft 6kts
25-Aug-20 22:21 39.858403 -104.685147 179 5373ft 21kts
25-Aug-20 22:22 39.852705 -104.685160 180 5373ft 17kts
25-Aug-20 22:23 39.852410 -104.680709 90 5380ft 10kts
25-Aug-20 22:24 39.852364 -104.675293 90 5380ft 16kts
25-Aug-20 22:25 39.853299 -104.672535 0 5380ft 1kts
25-Aug-20 22:26 39.853311 -104.672534 0 5380ft 0kts
25-Aug-20 22:27 39.853311 -104.672534 0 5380ft 0kts
25-Aug-20 22:28 39.893292 -104.686845 183 5383ft 136kts
25-Aug-20 22:29 39.853311 -104.672534 0 5380ft 0kts
25-Aug-20 22:30 39.853311 -104.672534 0 5380ft 0kts

Navigation Log

Ident Type
Flight plan parsing failed, navigation log unavailable